Maersk Visby — 9V8827 — position and weather

sailwx.info

Track history (hours):
 
Tides and Currents Weather Stations Pressure Air Temp Water Temp Dewpoint Dewpoint Depression Visibility Wind Speed Wind Dir Waves Ship Positions

Maersk Visby

Last reported at 2018-Feb-18 19:38 UTC. Time now 2018-Feb-20 00:15 UTC.
Position N 17°49' W 060°28'.

Length 180 m; draft 8.7 m.

Type: Ship (hazmat cat A). MMSI: 564979000.

Date/timePositionNaut miles runAvg speedWind from/ knotsBaromVisibWave heightAir tempDewpointWater temp
2018-Feb-18 19:38N 17°49' W 060°28'1216.1
2018-Feb-18 18:52N 17°57' W 060°39'616.2
2018-Feb-18 18:29N 18°01' W 060°44'  
2018-Feb-11 23:55N 34°08' W 076°23'615.8
2018-Feb-11 23:30N 34°12' W 076°18'15713.0
2018-Feb-11 11:22N 36°47' W 075°45'410.0
2018-Feb-11 11:00N 36°50' W 075°49'510.0
2018-Feb-11 10:30N 36°53' W 075°54'5 9.8
2018-Feb-11 10:00N 36°56' W 075°59'4 8.5
2018-Feb-11 09:30N 36°58' W 076°04'714.8
2018-Feb-11 09:00N 36°60' W 076°12'713.1
2018-Feb-11 08:30N 36°58' W 076°20'4 9.1
2018-Feb-11 08:00N 36°53' W 076°20'2 3.3
2018-Feb-11 07:30N 36°51' W 076°20'0 0.0
2018-Feb-11 06:58N 36°51' W 076°20'0 0.0
2018-Feb-11 06:28N 36°51' W 076°20'0 0.0
2018-Feb-11 05:58N 36°51' W 076°20'0 0.0
2018-Feb-11 05:25N 36°51' W 076°20'0 0.0
2018-Feb-11 04:58N 36°51' W 076°20'0 0.0
2018-Feb-11 04:28N 36°51' W 076°20'0 0.0
2018-Feb-11 03:58N 36°51' W 076°20'0 0.0
2018-Feb-11 03:28N 36°51' W 076°20'0 0.0
2018-Feb-11 02:58N 36°51' W 076°20'0 0.0
2018-Feb-11 02:28N 36°51' W 076°20'0 0.0
2018-Feb-11 01:58N 36°51' W 076°20'0 0.0
2018-Feb-11 01:28N 36°51' W 076°20'0 0.0
2018-Feb-11 00:58N 36°51' W 076°20'0 0.0
2018-Feb-11 00:28N 36°51' W 076°20'0 0.0
2018-Feb-10 23:58N 36°51' W 076°20'0 0.0
2018-Feb-10 23:28N 36°51' W 076°20'0 0.0
2018-Feb-10 22:58N 36°51' W 076°20'0 0.0
2018-Feb-10 22:28N 36°51' W 076°20'0 0.0
2018-Feb-10 21:58N 36°51' W 076°20'0 0.9
2018-Feb-10 21:30N 36°52' W 076°19'3 7.0
2018-Feb-10 21:00N 36°55' W 076°20'5 9.5
2018-Feb-10 20:27N 37°00' W 076°18'714.9
2018-Feb-10 19:58N 36°59' W 076°09'714.5
2018-Feb-10 19:30N 36°57' W 076°01'510.0
2018-Feb-10 19:01N 36°55' W 075°55'3 6.5
2018-Feb-10 18:30N 36°53' W 075°53'4 7.0
2018-Feb-10 18:00N 36°55' W 075°56'4 7.2
2018-Feb-10 17:30N 36°57' W 076°00'612.8
2018-Feb-10 17:01N 37°02' W 076°04'918.0
2018-Feb-10 16:31N 37°10' W 076°09'917.9
2018-Feb-10 16:00N 37°19' W 076°06'3716.4
2018-Feb-10 13:44N 37°56' W 076°11'517.9
2018-Feb-10 13:27N 38°01' W 076°13'3418.0
2018-Feb-10 11:33N 38°34' W 076°26'117.8
2018-Feb-10 11:30N 38°35' W 076°26'918.1
2018-Feb-10 11:00N 38°43' W 076°26'918.1
2018-Feb-10 10:31N 38°52' W 076°24'816.6
2018-Feb-10 10:01N 39°01' W 076°23'714.2
2018-Feb-10 09:30N 39°08' W 076°24'611.6
2018-Feb-10 09:00N 39°12' W 076°29'4 8.8
2018-Feb-10 08:30N 39°15' W 076°33'1 1.5
2018-Feb-10 08:00N 39°15' W 076°33'0 0.0
2018-Feb-10 07:30N 39°15' W 076°33'0 0.0
2018-Feb-10 07:00N 39°15' W 076°33'0 0.1
2018-Feb-10 06:30N 39°15' W 076°33'0 0.1
2018-Feb-10 06:00N 39°15' W 076°33'0 0.0
2018-Feb-10 05:30N 39°15' W 076°33'0 0.0
2018-Feb-10 05:00N 39°15' W 076°33'0 0.0
2018-Feb-10 04:30N 39°15' W 076°33'0 0.0
2018-Feb-10 04:00N 39°15' W 076°33'0 0.0
2018-Feb-10 03:30N 39°15' W 076°33'0 0.0
2018-Feb-10 03:00N 39°15' W 076°33'0 0.0
2018-Feb-10 02:30N 39°15' W 076°33'0 0.0
2018-Feb-10 02:00N 39°15' W 076°33'0 0.0
2018-Feb-10 01:30N 39°15' W 076°33'0 0.0
2018-Feb-10 01:00N 39°15' W 076°33'0 0.0
2018-Feb-10 00:30N 39°15' W 076°33'0 0.0
2018-Feb-10 00:00N 39°15' W 076°33'0 0.0
2018-Feb-09 23:27N 39°15' W 076°33'0 0.0
2018-Feb-09 23:00N 39°15' W 076°33'0 0.0
2018-Feb-09 22:45N 39°15' W 076°33'0 0.0
2018-Feb-09 11:00N 39°15' W 076°33'2 4.7
2018-Feb-09 10:30N 39°13' W 076°31'510.2
2018-Feb-09 10:00N 39°10' W 076°26'14115.6
2018-Feb-09 01:00N 36°52' W 075°51'  
Track history (hours):
 
Tides and Currents Weather Stations Pressure Air Temp Water Temp Dewpoint Dewpoint Depression Visibility Wind Speed Wind Dir Waves Ship Positions

Maersk Visby

Last reported at 2018-Feb-18 19:38 UTC. Time now 2018-Feb-20 00:15 UTC.
Position N 17°49' W 060°28'.

Length 180 m; draft 8.7 m.

Type: Ship (hazmat cat A). MMSI: 564979000.

Date/timePositionNaut miles runAvg speedWind from/ knotsBaromVisibWave heightAir tempDewpointWater temp
2018-Feb-18 19:38N 17°49' W 060°28'1216.1
2018-Feb-18 18:52N 17°57' W 060°39'616.2
2018-Feb-18 18:29N 18°01' W 060°44'  
2018-Feb-11 23:55N 34°08' W 076°23'615.8
2018-Feb-11 23:30N 34°12' W 076°18'15713.0
2018-Feb-11 11:22N 36°47' W 075°45'410.0
2018-Feb-11 11:00N 36°50' W 075°49'510.0
2018-Feb-11 10:30N 36°53' W 075°54'5 9.8
2018-Feb-11 10:00N 36°56' W 075°59'4 8.5
2018-Feb-11 09:30N 36°58' W 076°04'714.8
2018-Feb-11 09:00N 36°60' W 076°12'713.1
2018-Feb-11 08:30N 36°58' W 076°20'4 9.1
2018-Feb-11 08:00N 36°53' W 076°20'2 3.3
2018-Feb-11 07:30N 36°51' W 076°20'0 0.0
2018-Feb-11 06:58N 36°51' W 076°20'0 0.0
2018-Feb-11 06:28N 36°51' W 076°20'0 0.0
2018-Feb-11 05:58N 36°51' W 076°20'0 0.0
2018-Feb-11 05:25N 36°51' W 076°20'0 0.0
2018-Feb-11 04:58N 36°51' W 076°20'0 0.0
2018-Feb-11 04:28N 36°51' W 076°20'0 0.0
2018-Feb-11 03:58N 36°51' W 076°20'0 0.0
2018-Feb-11 03:28N 36°51' W 076°20'0 0.0
2018-Feb-11 02:58N 36°51' W 076°20'0 0.0
2018-Feb-11 02:28N 36°51' W 076°20'0 0.0
2018-Feb-11 01:58N 36°51' W 076°20'0 0.0
2018-Feb-11 01:28N 36°51' W 076°20'0 0.0
2018-Feb-11 00:58N 36°51' W 076°20'0 0.0
2018-Feb-11 00:28N 36°51' W 076°20'0 0.0
2018-Feb-10 23:58N 36°51' W 076°20'0 0.0
2018-Feb-10 23:28N 36°51' W 076°20'0 0.0
2018-Feb-10 22:58N 36°51' W 076°20'0 0.0
2018-Feb-10 22:28N 36°51' W 076°20'0 0.0
2018-Feb-10 21:58N 36°51' W 076°20'0 0.9
2018-Feb-10 21:30N 36°52' W 076°19'3 7.0
2018-Feb-10 21:00N 36°55' W 076°20'5 9.5
2018-Feb-10 20:27N 37°00' W 076°18'714.9
2018-Feb-10 19:58N 36°59' W 076°09'714.5
2018-Feb-10 19:30N 36°57' W 076°01'510.0
2018-Feb-10 19:01N 36°55' W 075°55'3 6.5
2018-Feb-10 18:30N 36°53' W 075°53'4 7.0
2018-Feb-10 18:00N 36°55' W 075°56'4 7.2
2018-Feb-10 17:30N 36°57' W 076°00'612.8
2018-Feb-10 17:01N 37°02' W 076°04'918.0
2018-Feb-10 16:31N 37°10' W 076°09'917.9
2018-Feb-10 16:00N 37°19' W 076°06'3716.4
2018-Feb-10 13:44N 37°56' W 076°11'517.9
2018-Feb-10 13:27N 38°01' W 076°13'3418.0
2018-Feb-10 11:33N 38°34' W 076°26'117.8
2018-Feb-10 11:30N 38°35' W 076°26'918.1
2018-Feb-10 11:00N 38°43' W 076°26'918.1
2018-Feb-10 10:31N 38°52' W 076°24'816.6
2018-Feb-10 10:01N 39°01' W 076°23'714.2
2018-Feb-10 09:30N 39°08' W 076°24'611.6
2018-Feb-10 09:00N 39°12' W 076°29'4 8.8
2018-Feb-10 08:30N 39°15' W 076°33'1 1.5
2018-Feb-10 08:00N 39°15' W 076°33'0 0.0
2018-Feb-10 07:30N 39°15' W 076°33'0 0.0
2018-Feb-10 07:00N 39°15' W 076°33'0 0.1
2018-Feb-10 06:30N 39°15' W 076°33'0 0.1
2018-Feb-10 06:00N 39°15' W 076°33'0 0.0
2018-Feb-10 05:30N 39°15' W 076°33'0 0.0
2018-Feb-10 05:00N 39°15' W 076°33'0 0.0
2018-Feb-10 04:30N 39°15' W 076°33'0 0.0
2018-Feb-10 04:00N 39°15' W 076°33'0 0.0
2018-Feb-10 03:30N 39°15' W 076°33'0 0.0
2018-Feb-10 03:00N 39°15' W 076°33'0 0.0
2018-Feb-10 02:30N 39°15' W 076°33'0 0.0
2018-Feb-10 02:00N 39°15' W 076°33'0 0.0
2018-Feb-10 01:30N 39°15' W 076°33'0 0.0
2018-Feb-10 01:00N 39°15' W 076°33'0 0.0
2018-Feb-10 00:30N 39°15' W 076°33'0 0.0
2018-Feb-10 00:00N 39°15' W 076°33'0 0.0
2018-Feb-09 23:27N 39°15' W 076°33'0 0.0
2018-Feb-09 23:00N 39°15' W 076°33'0 0.0
2018-Feb-09 22:45N 39°15' W 076°33'0 0.0
2018-Feb-09 11:00N 39°15' W 076°33'2 4.7
2018-Feb-09 10:30N 39°13' W 076°31'510.2
2018-Feb-09 10:00N 39°10' W 076°26'14115.6
2018-Feb-09 01:00N 36°52' W 075°51'  

Dump ship's entire track history